sensor_id;sensor_type;location;lat;lon;timestamp;pressure;altitude;pressure_sealevel;temperature;humidity
54554;BME280;40450;55.848;-3.572;2023-02-28T00:00:12;101656.56;;;8.64;65.56
54554;BME280;40450;55.848;-3.572;2023-02-28T00:02:41;101655.46;;;8.69;65.78
54554;BME280;40450;55.848;-3.572;2023-02-28T00:05:13;101660.51;;;8.42;66.17
54554;BME280;40450;55.848;-3.572;2023-02-28T00:07:41;101656.88;;;8.62;66.03
54554;BME280;40450;55.848;-3.572;2023-02-28T00:10:14;101656.75;;;9.30;64.79
54554;BME280;40450;55.848;-3.572;2023-02-28T00:12:41;101660.64;;;9.47;64.88
54554;BME280;40450;55.848;-3.572;2023-02-28T00:15:12;101663.09;;;9.54;64.06
54554;BME280;40450;55.848;-3.572;2023-02-28T00:17:42;101660.39;;;9.70;63.85
54554;BME280;40450;55.848;-3.572;2023-02-28T00:20:13;101666.28;;;9.99;63.36
54554;BME280;40450;55.848;-3.572;2023-02-28T00:22:44;101663.19;;;10.28;63.15
54554;BME280;40450;55.848;-3.572;2023-02-28T00:25:15;101660.48;;;10.29;62.57
54554;BME280;40450;55.848;-3.572;2023-02-28T00:27:44;101662.98;;;10.00;62.09
54554;BME280;40450;55.848;-3.572;2023-02-28T00:32:44;101659.73;;;9.65;63.28
54554;BME280;40450;55.848;-3.572;2023-02-28T00:35:16;101663.02;;;10.00;63.06
54554;BME280;40450;55.848;-3.572;2023-02-28T00:37:45;101660.01;;;10.18;62.67
54554;BME280;40450;55.848;-3.572;2023-02-28T00:40:16;101654.55;;;10.38;62.77
54554;BME280;40450;55.848;-3.572;2023-02-28T00:42:46;101655.93;;;9.80;62.60
54554;BME280;40450;55.848;-3.572;2023-02-28T00:45:16;101661.26;;;9.67;63.17
54554;BME280;40450;55.848;-3.572;2023-02-28T00:47:46;101657.91;;;9.19;64.30
54554;BME280;40450;55.848;-3.572;2023-02-28T00:50:17;101659.39;;;9.13;64.76
54554;BME280;40450;55.848;-3.572;2023-02-28T00:52:48;101657.34;;;9.02;64.94
54554;BME280;40450;55.848;-3.572;2023-02-28T00:55:18;101657.56;;;8.98;65.21
54554;BME280;40450;55.848;-3.572;2023-02-28T00:57:49;101654.04;;;9.09;63.66
54554;BME280;40450;55.848;-3.572;2023-02-28T01:00:19;101655.31;;;9.60;64.03
54554;BME280;40450;55.848;-3.572;2023-02-28T01:02:49;101653.29;;;9.94;63.52
54554;BME280;40450;55.848;-3.572;2023-02-28T01:05:19;101656.00;;;9.65;63.00
54554;BME280;40450;55.848;-3.572;2023-02-28T01:07:50;101658.96;;;10.03;63.26
54554;BME280;40450;55.848;-3.572;2023-02-28T01:10:20;101657.54;;;10.01;62.30
54554;BME280;40450;55.848;-3.572;2023-02-28T01:12:51;101650.76;;;10.19;62.61
54554;BME280;40450;55.848;-3.572;2023-02-28T01:15:21;101652.69;;;10.32;61.98
54554;BME280;40450;55.848;-3.572;2023-02-28T01:17:51;101653.20;;;10.35;61.95
54554;BME280;40450;55.848;-3.572;2023-02-28T01:20:21;101657.33;;;10.17;61.33
54554;BME280;40450;55.848;-3.572;2023-02-28T01:22:53;101664.41;;;9.99;60.99
54554;BME280;40450;55.848;-3.572;2023-02-28T01:25:22;101661.68;;;10.54;61.98
54554;BME280;40450;55.848;-3.572;2023-02-28T01:27:52;101659.94;;;10.66;61.45
54554;BME280;40450;55.848;-3.572;2023-02-28T01:30:22;101664.75;;;10.49;60.80
54554;BME280;40450;55.848;-3.572;2023-02-28T01:32:53;101670.25;;;9.39;63.38
54554;BME280;40450;55.848;-3.572;2023-02-28T01:35:23;101671.74;;;7.92;67.54
54554;BME280;40450;55.848;-3.572;2023-02-28T01:37:54;101671.90;;;8.03;67.07
54554;BME280;40450;55.848;-3.572;2023-02-28T01:40:24;101677.40;;;8.35;66.60
54554;BME280;40450;55.848;-3.572;2023-02-28T01:42:54;101679.85;;;8.21;67.21
54554;BME280;40450;55.848;-3.572;2023-02-28T01:45:27;101684.14;;;8.43;66.32
54554;BME280;40450;55.848;-3.572;2023-02-28T01:48:00;101681.72;;;8.99;65.50
54554;BME280;40450;55.848;-3.572;2023-02-28T01:50:29;101684.43;;;9.30;64.97
54554;BME280;40450;55.848;-3.572;2023-02-28T01:52:59;101685.13;;;9.14;64.28
54554;BME280;40450;55.848;-3.572;2023-02-28T01:55:27;101685.29;;;9.29;64.59
54554;BME280;40450;55.848;-3.572;2023-02-28T01:58:00;101686.00;;;9.55;64.69
54554;BME280;40450;55.848;-3.572;2023-02-28T02:00:29;101682.42;;;9.61;64.16
54554;BME280;40450;55.848;-3.572;2023-02-28T02:03:00;101678.37;;;9.70;63.73
54554;BME280;40450;55.848;-3.572;2023-02-28T02:05:30;101683.12;;;9.80;63.19
54554;BME280;40450;55.848;-3.572;2023-02-28T02:08:03;101690.15;;;9.85;62.67
54554;BME280;40450;55.848;-3.572;2023-02-28T02:10:32;101689.94;;;9.43;63.53
54554;BME280;40450;55.848;-3.572;2023-02-28T02:13:10;101685.66;;;9.49;63.65
54554;BME280;40450;55.848;-3.572;2023-02-28T02:15:34;101685.70;;;9.67;63.78
54554;BME280;40450;55.848;-3.572;2023-02-28T02:18:05;101684.37;;;9.35;63.81
54554;BME280;40450;55.848;-3.572;2023-02-28T02:20:44;101690.13;;;9.13;64.51
54554;BME280;40450;55.848;-3.572;2023-02-28T02:25:36;101689.01;;;8.33;66.47
54554;BME280;40450;55.848;-3.572;2023-02-28T02:33:10;101700.85;;;7.00;70.65
54554;BME280;40450;55.848;-3.572;2023-02-28T02:35:39;101698.04;;;7.03;71.02
54554;BME280;40450;55.848;-3.572;2023-02-28T02:38:08;101699.95;;;7.45;69.77
54554;BME280;40450;55.848;-3.572;2023-02-28T02:40:37;101700.13;;;7.68;68.48
54554;BME280;40450;55.848;-3.572;2023-02-28T02:43:08;101702.64;;;8.14;68.45
54554;BME280;40450;55.848;-3.572;2023-02-28T02:45:37;101705.79;;;7.19;70.16
54554;BME280;40450;55.848;-3.572;2023-02-28T02:48:08;101703.14;;;7.77;69.62
54554;BME280;40450;55.848;-3.572;2023-02-28T02:50:39;101699.01;;;8.21;68.74
54554;BME280;40450;55.848;-3.572;2023-02-28T02:53:07;101695.92;;;8.67;67.77
54554;BME280;40450;55.848;-3.572;2023-02-28T02:55:40;101691.87;;;8.87;67.13
54554;BME280;40450;55.848;-3.572;2023-02-28T02:58:10;101692.10;;;9.00;66.03
54554;BME280;40450;55.848;-3.572;2023-02-28T03:00:39;101689.48;;;9.28;66.16
54554;BME280;40450;55.848;-3.572;2023-02-28T03:03:08;101687.43;;;9.43;65.56
54554;BME280;40450;55.848;-3.572;2023-02-28T03:05:42;101691.39;;;9.88;65.54
54554;BME280;40450;55.848;-3.572;2023-02-28T03:08:08;101691.67;;;9.83;64.14
54554;BME280;40450;55.848;-3.572;2023-02-28T03:10:40;101690.47;;;10.06;64.52
54554;BME280;40450;55.848;-3.572;2023-02-28T03:13:19;101692.10;;;9.98;63.85
54554;BME280;40450;55.848;-3.572;2023-02-28T03:15:48;101685.76;;;10.13;63.20
54554;BME280;40450;55.848;-3.572;2023-02-28T03:18:14;101681.21;;;9.95;61.84
54554;BME280;40450;55.848;-3.572;2023-02-28T03:20:43;101682.71;;;7.64;67.23
54554;BME280;40450;55.848;-3.572;2023-02-28T03:23:15;101682.57;;;8.57;65.97
54554;BME280;40450;55.848;-3.572;2023-02-28T03:25:51;101679.83;;;9.39;64.52
54554;BME280;40450;55.848;-3.572;2023-02-28T03:28:17;101680.67;;;9.74;63.52
54554;BME280;40450;55.848;-3.572;2023-02-28T03:30:47;101680.87;;;10.08;63.60
54554;BME280;40450;55.848;-3.572;2023-02-28T03:33:16;101680.49;;;9.84;63.02
54554;BME280;40450;55.848;-3.572;2023-02-28T03:35:45;101679.94;;;9.75;62.84
54554;BME280;40450;55.848;-3.572;2023-02-28T03:38:17;101677.98;;;10.18;62.39
54554;BME280;40450;55.848;-3.572;2023-02-28T03:40:47;101675.88;;;8.81;64.31
54554;BME280;40450;55.848;-3.572;2023-02-28T03:43:18;101674.73;;;7.95;66.24
54554;BME280;40450;55.848;-3.572;2023-02-28T03:45:46;101672.63;;;9.34;64.35
54554;BME280;40450;55.848;-3.572;2023-02-28T03:48:19;101676.22;;;9.61;63.14
54554;BME280;40450;55.848;-3.572;2023-02-28T03:50:47;101670.88;;;9.12;64.18
54554;BME280;40450;55.848;-3.572;2023-02-28T03:53:18;101667.84;;;9.34;63.83
54554;BME280;40450;55.848;-3.572;2023-02-28T03:55:48;101667.99;;;9.08;63.97
54554;BME280;40450;55.848;-3.572;2023-02-28T03:58:21;101667.97;;;7.09;68.51
54554;BME280;40450;55.848;-3.572;2023-02-28T04:00:49;101669.52;;;7.19;68.35
54554;BME280;40450;55.848;-3.572;2023-02-28T04:03:17;101665.80;;;8.66;65.79
54554;BME280;40450;55.848;-3.572;2023-02-28T04:05:51;101666.40;;;9.39;64.57
54554;BME280;40450;55.848;-3.572;2023-02-28T04:08:17;101661.77;;;8.76;65.51
54554;BME280;40450;55.848;-3.572;2023-02-28T04:10:53;101664.08;;;9.23;64.05
54554;BME280;40450;55.848;-3.572;2023-02-28T04:13:18;101666.25;;;9.66;64.43
54554;BME280;40450;55.848;-3.572;2023-02-28T04:15:49;101667.28;;;9.86;64.10
54554;BME280;40450;55.848;-3.572;2023-02-28T04:18:19;101663.65;;;9.62;63.29
54554;BME280;40450;55.848;-3.572;2023-02-28T04:20:49;101664.61;;;10.01;62.51
54554;BME280;40450;55.848;-3.572;2023-02-28T04:23:20;101666.72;;;10.19;62.70
54554;BME280;40450;55.848;-3.572;2023-02-28T04:25:54;101673.16;;;7.39;68.21
54554;BME280;40450;55.848;-3.572;2023-02-28T04:28:21;101670.87;;;9.27;64.65
54554;BME280;40450;55.848;-3.572;2023-02-28T04:30:55;101675.00;;;10.13;63.00
54554;BME280;40450;55.848;-3.572;2023-02-28T04:33:21;101674.23;;;10.27;63.01
54554;BME280;40450;55.848;-3.572;2023-02-28T04:35:58;101671.28;;;10.53;62.28
54554;BME280;40450;55.848;-3.572;2023-02-28T04:38:22;101670.42;;;10.64;61.73
54554;BME280;40450;55.848;-3.572;2023-02-28T04:40:53;101669.94;;;10.63;61.82
54554;BME280;40450;55.848;-3.572;2023-02-28T04:43:23;101670.56;;;10.49;61.27
54554;BME280;40450;55.848;-3.572;2023-02-28T04:45:53;101672.32;;;9.15;63.99
54554;BME280;40450;55.848;-3.572;2023-02-28T04:48:24;101677.77;;;9.93;62.92
54554;BME280;40450;55.848;-3.572;2023-02-28T04:50:54;101679.32;;;9.63;63.02
54554;BME280;40450;55.848;-3.572;2023-02-28T04:53:25;101673.80;;;10.41;62.58
54554;BME280;40450;55.848;-3.572;2023-02-28T04:55:55;101677.32;;;9.94;63.50
54554;BME280;40450;55.848;-3.572;2023-02-28T04:58:26;101674.57;;;9.28;63.67
54554;BME280;40450;55.848;-3.572;2023-02-28T05:01:01;101679.36;;;9.97;63.60
54554;BME280;40450;55.848;-3.572;2023-02-28T05:03:26;101676.67;;;10.27;62.58
54554;BME280;40450;55.848;-3.572;2023-02-28T05:05:57;101675.51;;;10.38;62.87
54554;BME280;40450;55.848;-3.572;2023-02-28T05:08:27;101675.68;;;8.50;65.24
54554;BME280;40450;55.848;-3.572;2023-02-28T05:10:58;101675.28;;;10.37;62.95
54554;BME280;40450;55.848;-3.572;2023-02-28T05:13:28;101681.38;;;8.98;64.76
54554;BME280;40450;55.848;-3.572;2023-02-28T05:15:58;101685.50;;;10.18;62.99
54554;BME280;40450;55.848;-3.572;2023-02-28T05:18:29;101684.67;;;10.45;62.55
54554;BME280;40450;55.848;-3.572;2023-02-28T05:21:00;101682.60;;;10.36;62.70
54554;BME280;40450;55.848;-3.572;2023-02-28T05:23:30;101686.17;;;10.51;62.47
54554;BME280;40450;55.848;-3.572;2023-02-28T05:26:05;101691.65;;;9.95;62.32
54554;BME280;40450;55.848;-3.572;2023-02-28T05:28:30;101687.95;;;10.65;62.18
54554;BME280;40450;55.848;-3.572;2023-02-28T05:31:00;101688.28;;;10.47;62.13
54554;BME280;40450;55.848;-3.572;2023-02-28T05:33:31;101686.83;;;10.47;62.47
54554;BME280;40450;55.848;-3.572;2023-02-28T05:36:01;101683.98;;;9.26;64.50
54554;BME280;40450;55.848;-3.572;2023-02-28T05:38:31;101689.49;;;6.38;72.32
54554;BME280;40450;55.848;-3.572;2023-02-28T05:41:06;101689.27;;;7.88;68.66
54554;BME280;40450;55.848;-3.572;2023-02-28T05:43:33;101685.67;;;9.26;66.32
54554;BME280;40450;55.848;-3.572;2023-02-28T05:46:04;101687.29;;;9.77;65.36
54554;BME280;40450;55.848;-3.572;2023-02-28T05:48:34;101683.95;;;9.31;64.96
54554;BME280;40450;55.848;-3.572;2023-02-28T05:51:04;101682.66;;;10.17;64.48
54554;BME280;40450;55.848;-3.572;2023-02-28T05:53:34;101680.39;;;9.27;64.64
54554;BME280;40450;55.848;-3.572;2023-02-28T05:56:05;101682.07;;;9.43;65.80
54554;BME280;40450;55.848;-3.572;2023-02-28T05:58:35;101688.63;;;6.61;71.46
54554;BME280;40450;55.848;-3.572;2023-02-28T06:03:36;101684.04;;;8.77;67.83
54554;BME280;40450;55.848;-3.572;2023-02-28T06:06:06;101686.47;;;8.41;68.98
54554;BME280;40450;55.848;-3.572;2023-02-28T06:08:36;101695.50;;;6.18;74.33
54554;BME280;40450;55.848;-3.572;2023-02-28T06:11:06;101694.37;;;9.05;68.66
54554;BME280;40450;55.848;-3.572;2023-02-28T06:13:36;101694.16;;;9.29;67.05
54554;BME280;40450;55.848;-3.572;2023-02-28T06:16:08;101699.10;;;9.35;66.49
54554;BME280;40450;55.848;-3.572;2023-02-28T06:18:37;101698.84;;;9.38;66.45
54554;BME280;40450;55.848;-3.572;2023-02-28T06:21:07;101700.08;;;9.56;66.35
54554;BME280;40450;55.848;-3.572;2023-02-28T06:23:38;101704.84;;;9.73;65.98
54554;BME280;40450;55.848;-3.572;2023-02-28T06:26:08;101705.27;;;9.62;66.06
54554;BME280;40450;55.848;-3.572;2023-02-28T06:28:39;101706.49;;;9.25;66.67
54554;BME280;40450;55.848;-3.572;2023-02-28T06:31:12;101710.27;;;10.03;64.93
54554;BME280;40450;55.848;-3.572;2023-02-28T06:33:41;101714.76;;;9.66;64.69
54554;BME280;40450;55.848;-3.572;2023-02-28T06:36:12;101717.41;;;10.00;65.26
54554;BME280;40450;55.848;-3.572;2023-02-28T06:38:41;101716.20;;;10.07;64.70
54554;BME280;40450;55.848;-3.572;2023-02-28T06:41:11;101716.06;;;8.81;66.22
54554;BME280;40450;55.848;-3.572;2023-02-28T06:43:42;101716.48;;;9.19;65.28
54554;BME280;40450;55.848;-3.572;2023-02-28T06:46:13;101715.55;;;8.32;66.92
54554;BME280;40450;55.848;-3.572;2023-02-28T06:48:43;101720.87;;;7.98;68.95
54554;BME280;40450;55.848;-3.572;2023-02-28T06:51:14;101724.01;;;7.09;71.49
54554;BME280;40450;55.848;-3.572;2023-02-28T06:53:42;101724.15;;;7.11;71.22
54554;BME280;40450;55.848;-3.572;2023-02-28T06:56:14;101731.29;;;5.76;75.46
54554;BME280;40450;55.848;-3.572;2023-02-28T06:58:46;101730.46;;;4.67;78.21
54554;BME280;40450;55.848;-3.572;2023-02-28T07:01:14;101735.43;;;1.91;86.69
54554;BME280;40450;55.848;-3.572;2023-02-28T07:03:44;101729.92;;;4.16;81.27
54554;BME280;40450;55.848;-3.572;2023-02-28T07:06:15;101727.90;;;6.36;76.23
54554;BME280;40450;55.848;-3.572;2023-02-28T07:08:45;101727.20;;;7.46;73.50
54554;BME280;40450;55.848;-3.572;2023-02-28T07:11:16;101727.07;;;7.64;72.88
54554;BME280;40450;55.848;-3.572;2023-02-28T07:13:46;101735.04;;;5.93;75.18
54554;BME280;40450;55.848;-3.572;2023-02-28T07:16:16;101731.53;;;7.15;73.22
54554;BME280;40450;55.848;-3.572;2023-02-28T07:18:47;101735.75;;;6.98;73.27
54554;BME280;40450;55.848;-3.572;2023-02-28T07:21:17;101739.63;;;6.23;75.41
54554;BME280;40450;55.848;-3.572;2023-02-28T07:23:48;101739.15;;;7.40;72.49
54554;BME280;40450;55.848;-3.572;2023-02-28T07:26:19;101742.29;;;4.21;80.59
54554;BME280;40450;55.848;-3.572;2023-02-28T07:28:49;101746.99;;;5.67;77.82
54554;BME280;40450;55.848;-3.572;2023-02-28T07:31:19;101743.51;;;6.58;76.89
54554;BME280;40450;55.848;-3.572;2023-02-28T07:33:50;101754.52;;;4.15;81.40
54554;BME280;40450;55.848;-3.572;2023-02-28T07:36:20;101758.72;;;1.53;88.34
54554;BME280;40450;55.848;-3.572;2023-02-28T07:38:50;101767.50;;;-1.05;95.10
54554;BME280;40450;55.848;-3.572;2023-02-28T07:41:22;101771.31;;;-1.66;96.74
54554;BME280;40450;55.848;-3.572;2023-02-28T07:43:53;101769.47;;;0.25;94.45
54554;BME280;40450;55.848;-3.572;2023-02-28T07:46:21;101771.47;;;0.20;95.23
54554;BME280;40450;55.848;-3.572;2023-02-28T07:48:51;101767.83;;;2.38;90.80
54554;BME280;40450;55.848;-3.572;2023-02-28T07:51:22;101771.20;;;1.52;92.55
54554;BME280;40450;55.848;-3.572;2023-02-28T07:53:52;101766.76;;;4.75;86.52
54554;BME280;40450;55.848;-3.572;2023-02-28T07:56:23;101770.73;;;2.81;89.35
54554;BME280;40450;55.848;-3.572;2023-02-28T07:58:53;101783.92;;;-1.55;96.53
54554;BME280;40450;55.848;-3.572;2023-02-28T08:01:23;101778.91;;;0.72;93.97
54554;BME280;40450;55.848;-3.572;2023-02-28T08:03:54;101779.88;;;0.90;93.92
54554;BME280;40450;55.848;-3.572;2023-02-28T08:06:26;101780.99;;;0.39;93.77
54554;BME280;40450;55.848;-3.572;2023-02-28T08:08:55;101783.00;;;0.48;94.91
54554;BME280;40450;55.848;-3.572;2023-02-28T08:11:25;101776.01;;;1.54;93.88
54554;BME280;40450;55.848;-3.572;2023-02-28T08:13:56;101773.63;;;2.82;89.98
54554;BME280;40450;55.848;-3.572;2023-02-28T08:16:26;101770.24;;;3.84;86.52
54554;BME280;40450;55.848;-3.572;2023-02-28T08:18:56;101772.69;;;3.85;88.68
54554;BME280;40450;55.848;-3.572;2023-02-28T08:21:27;101774.53;;;2.97;89.49
54554;BME280;40450;55.848;-3.572;2023-02-28T08:23:59;101772.25;;;5.95;85.23
54554;BME280;40450;55.848;-3.572;2023-02-28T08:26:28;101775.20;;;5.63;82.39
54554;BME280;40450;55.848;-3.572;2023-02-28T08:28:58;101774.08;;;3.98;84.81
54554;BME280;40450;55.848;-3.572;2023-02-28T08:31:29;101783.62;;;0.83;92.64
54554;BME280;40450;55.848;-3.572;2023-02-28T08:33:59;101782.81;;;1.75;92.00
54554;BME280;40450;55.848;-3.572;2023-02-28T08:36:30;101785.48;;;3.30;87.61
54554;BME280;40450;55.848;-3.572;2023-02-28T08:39:00;101788.38;;;2.91;86.88
54554;BME280;40450;55.848;-3.572;2023-02-28T08:41:31;101791.94;;;3.47;87.09
54554;BME280;40450;55.848;-3.572;2023-02-28T08:44:01;101795.28;;;3.83;86.76
54554;BME280;40450;55.848;-3.572;2023-02-28T08:46:31;101798.23;;;1.60;90.55
54554;BME280;40450;55.848;-3.572;2023-02-28T08:49:02;101801.97;;;0.95;92.22
54554;BME280;40450;55.848;-3.572;2023-02-28T08:51:33;101800.47;;;1.36;90.88
54554;BME280;40450;55.848;-3.572;2023-02-28T08:54:03;101797.14;;;-0.50;95.54
54554;BME280;40450;55.848;-3.572;2023-02-28T08:56:33;101794.90;;;0.10;94.83
54554;BME280;40450;55.848;-3.572;2023-02-28T08:59:04;101785.99;;;3.11;91.92
54554;BME280;40450;55.848;-3.572;2023-02-28T09:01:34;101782.69;;;4.48;88.22
54554;BME280;40450;55.848;-3.572;2023-02-28T09:04:05;101788.17;;;4.02;86.21
54554;BME280;40450;55.848;-3.572;2023-02-28T09:06:35;101789.61;;;2.19;89.72
54554;BME280;40450;55.848;-3.572;2023-02-28T09:09:05;101790.82;;;2.78;89.17
54554;BME280;40450;55.848;-3.572;2023-02-28T09:11:37;101788.16;;;3.87;86.30
54554;BME280;40450;55.848;-3.572;2023-02-28T09:14:06;101796.46;;;0.94;93.31
54554;BME280;40450;55.848;-3.572;2023-02-28T09:16:37;101786.58;;;3.27;89.49
54554;BME280;40450;55.848;-3.572;2023-02-28T09:19:11;101796.32;;;0.48;94.16
54554;BME280;40450;55.848;-3.572;2023-02-28T09:21:39;101797.98;;;1.07;93.30
54554;BME280;40450;55.848;-3.572;2023-02-28T09:24:08;101804.46;;;-1.52;96.82
54554;BME280;40450;55.848;-3.572;2023-02-28T09:26:38;101806.54;;;-2.46;99.20
54554;BME280;40450;55.848;-3.572;2023-02-28T09:29:10;101803.96;;;-1.24;97.47
54554;BME280;40450;55.848;-3.572;2023-02-28T09:31:39;101806.20;;;-1.36;97.98
54554;BME280;40450;55.848;-3.572;2023-02-28T09:34:10;101807.78;;;-1.05;97.22
54554;BME280;40450;55.848;-3.572;2023-02-28T09:36:40;101813.83;;;-1.74;97.09
54554;BME280;40450;55.848;-3.572;2023-02-28T09:39:11;101818.46;;;-3.58;99.93
54554;BME280;40450;55.848;-3.572;2023-02-28T09:41:43;101817.08;;;-2.73;99.31
54554;BME280;40450;55.848;-3.572;2023-02-28T09:44:17;101823.20;;;-1.95;98.84
54554;BME280;40450;55.848;-3.572;2023-02-28T09:46:44;101823.20;;;-1.38;97.01
54554;BME280;40450;55.848;-3.572;2023-02-28T09:49:14;101823.59;;;-1.42;96.79
54554;BME280;40450;55.848;-3.572;2023-02-28T09:51:49;101824.54;;;-1.13;95.92
54554;BME280;40450;55.848;-3.572;2023-02-28T09:54:15;101823.79;;;-1.45;96.96
54554;BME280;40450;55.848;-3.572;2023-02-28T09:56:45;101822.24;;;-0.75;95.44
54554;BME280;40450;55.848;-3.572;2023-02-28T09:59:24;101824.91;;;-2.07;97.21
54554;BME280;40450;55.848;-3.572;2023-02-28T10:01:50;101818.34;;;-0.09;94.90
54554;BME280;40450;55.848;-3.572;2023-02-28T10:04:27;101823.16;;;-1.62;96.77
54554;BME280;40450;55.848;-3.572;2023-02-28T10:06:48;101823.75;;;-3.63;99.28
54554;BME280;40450;55.848;-3.572;2023-02-28T10:09:19;101822.40;;;-3.01;99.50
54554;BME280;40450;55.848;-3.572;2023-02-28T10:11:47;101832.12;;;-4.09;100.00
54554;BME280;40450;55.848;-3.572;2023-02-28T10:14:19;101830.39;;;-3.61;100.00
54554;BME280;40450;55.848;-3.572;2023-02-28T10:16:51;101832.69;;;-3.87;99.76
54554;BME280;40450;55.848;-3.572;2023-02-28T10:19:22;101832.61;;;-3.61;99.89
54554;BME280;40450;55.848;-3.572;2023-02-28T10:21:55;101829.86;;;-3.06;99.26
54554;BME280;40450;55.848;-3.572;2023-02-28T10:24:23;101821.73;;;-0.95;96.87
54554;BME280;40450;55.848;-3.572;2023-02-28T10:26:52;101819.00;;;-2.62;97.53
54554;BME280;40450;55.848;-3.572;2023-02-28T10:29:20;101820.96;;;-3.12;99.59
54554;BME280;40450;55.848;-3.572;2023-02-28T10:31:50;101821.59;;;-4.29;100.00
54554;BME280;40450;55.848;-3.572;2023-02-28T10:34:21;101814.12;;;-1.87;98.47
54554;BME280;40450;55.848;-3.572;2023-02-28T10:36:51;101817.32;;;-2.27;98.42
54554;BME280;40450;55.848;-3.572;2023-02-28T10:41:52;101803.53;;;-0.40;94.85
54554;BME280;40450;55.848;-3.572;2023-02-28T10:44:23;101806.08;;;-1.10;95.50
54554;BME280;40450;55.848;-3.572;2023-02-28T10:46:53;101804.11;;;-1.71;97.47
54554;BME280;40450;55.848;-3.572;2023-02-28T10:49:25;101801.24;;;-0.87;95.92
54554;BME280;40450;55.848;-3.572;2023-02-28T10:51:56;101802.63;;;-1.83;96.30
54554;BME280;40450;55.848;-3.572;2023-02-28T10:54:28;101797.48;;;0.17;94.65
54554;BME280;40450;55.848;-3.572;2023-02-28T10:59:29;101799.84;;;-0.70;95.24
54554;BME280;40450;55.848;-3.572;2023-02-28T11:01:56;101802.76;;;-0.34;93.94
54554;BME280;40450;55.848;-3.572;2023-02-28T11:04:33;101805.93;;;-1.32;96.84
54554;BME280;40450;55.848;-3.572;2023-02-28T11:06:59;101809.59;;;-2.13;98.54
54554;BME280;40450;55.848;-3.572;2023-02-28T11:09:30;101809.24;;;-1.41;97.40
54554;BME280;40450;55.848;-3.572;2023-02-28T11:11:57;101811.94;;;-2.39;99.24
54554;BME280;40450;55.848;-3.572;2023-02-28T11:14:30;101810.01;;;-1.29;97.32
54554;BME280;40450;55.848;-3.572;2023-02-28T11:17:02;101811.46;;;0.09;94.20
54554;BME280;40450;55.848;-3.572;2023-02-28T11:19:33;101808.05;;;2.41;91.30
54554;BME280;40450;55.848;-3.572;2023-02-28T11:22:01;101806.66;;;3.33;89.56
54554;BME280;40450;55.848;-3.572;2023-02-28T11:24:31;101805.22;;;1.93;88.81
54554;BME280;40450;55.848;-3.572;2023-02-28T11:27:00;101809.10;;;0.52;91.38
54554;BME280;40450;55.848;-3.572;2023-02-28T11:29:31;101806.46;;;1.74;90.64
54554;BME280;40450;55.848;-3.572;2023-02-28T11:32:04;101809.22;;;0.75;91.35
54554;BME280;40450;55.848;-3.572;2023-02-28T11:34:32;101811.69;;;-0.16;93.36
54554;BME280;40450;55.848;-3.572;2023-02-28T11:37:02;101808.56;;;0.83;90.30
54554;BME280;40450;55.848;-3.572;2023-02-28T11:39:33;101806.46;;;0.16;92.94
54554;BME280;40450;55.848;-3.572;2023-02-28T11:42:13;101798.82;;;2.15;89.56
54554;BME280;40450;55.848;-3.572;2023-02-28T11:44:45;101805.76;;;0.78;91.00
54554;BME280;40450;55.848;-3.572;2023-02-28T11:47:10;101806.71;;;-0.45;94.02
54554;BME280;40450;55.848;-3.572;2023-02-28T11:49:40;101811.43;;;-0.82;95.71
54554;BME280;40450;55.848;-3.572;2023-02-28T11:52:14;101812.24;;;0.75;92.32
54554;BME280;40450;55.848;-3.572;2023-02-28T11:57:16;101800.33;;;1.62;90.28
54554;BME280;40450;55.848;-3.572;2023-02-28T11:59:46;101799.84;;;1.81;90.74
54554;BME280;40450;55.848;-3.572;2023-02-28T12:02:19;101797.83;;;-0.18;94.36
54554;BME280;40450;55.848;-3.572;2023-02-28T12:04:46;101802.85;;;-0.39;94.86
54554;BME280;40450;55.848;-3.572;2023-02-28T12:07:13;101810.86;;;-1.80;97.15
54554;BME280;40450;55.848;-3.572;2023-02-28T12:09:45;101804.29;;;-0.42;96.16
54554;BME280;40450;55.848;-3.572;2023-02-28T12:12:18;101801.84;;;-0.25;95.12
54554;BME280;40450;55.848;-3.572;2023-02-28T12:14:50;101804.61;;;0.54;94.46
54554;BME280;40450;55.848;-3.572;2023-02-28T12:17:21;101804.82;;;0.45;94.86
54554;BME280;40450;55.848;-3.572;2023-02-28T12:19:45;101801.23;;;0.48;94.24
54554;BME280;40450;55.848;-3.572;2023-02-28T12:22:19;101806.27;;;-0.28;95.28
54554;BME280;40450;55.848;-3.572;2023-02-28T12:27:13;101801.65;;;-0.52;96.49
54554;BME280;40450;55.848;-3.572;2023-02-28T12:29:51;101803.81;;;0.48;94.78
54554;BME280;40450;55.848;-3.572;2023-02-28T12:32:16;101797.27;;;1.38;93.19
54554;BME280;40450;55.848;-3.572;2023-02-28T12:34:46;101794.53;;;-0.28;95.77
54554;BME280;40450;55.848;-3.572;2023-02-28T12:37:15;101796.77;;;1.02;94.12
54554;BME280;40450;55.848;-3.572;2023-02-28T12:39:45;101794.99;;;1.24;92.37
54554;BME280;40450;55.848;-3.572;2023-02-28T12:42:22;101790.83;;;2.49;89.98
54554;BME280;40450;55.848;-3.572;2023-02-28T12:44:46;101798.08;;;1.27;92.26
54554;BME280;40450;55.848;-3.572;2023-02-28T12:47:17;101796.55;;;0.27;94.90
54554;BME280;40450;55.848;-3.572;2023-02-28T12:49:48;101792.76;;;1.44;93.40
54554;BME280;40450;55.848;-3.572;2023-02-28T12:52:19;101796.13;;;0.09;96.19
54554;BME280;40450;55.848;-3.572;2023-02-28T12:54:49;101794.00;;;0.92;93.39
54554;BME280;40450;55.848;-3.572;2023-02-28T12:57:21;101793.35;;;0.92;93.68
54554;BME280;40450;55.848;-3.572;2023-02-28T12:59:49;101793.01;;;1.20;93.22
54554;BME280;40450;55.848;-3.572;2023-02-28T13:02:27;101785.91;;;2.21;90.92
54554;BME280;40450;55.848;-3.572;2023-02-28T13:04:57;101783.72;;;2.65;90.15
54554;BME280;40450;55.848;-3.572;2023-02-28T13:09:52;101772.47;;;1.79;91.02
54554;BME280;40450;55.848;-3.572;2023-02-28T13:12:18;101766.17;;;1.51;91.78
54554;BME280;40450;55.848;-3.572;2023-02-28T13:14:49;101769.74;;;1.75;92.67
54554;BME280;40450;55.848;-3.572;2023-02-28T13:17:20;101765.40;;;3.03;90.27
54554;BME280;40450;55.848;-3.572;2023-02-28T13:19:56;101769.71;;;1.03;92.84
54554;BME280;40450;55.848;-3.572;2023-02-28T13:24:51;101760.14;;;1.46;93.25
54554;BME280;40450;55.848;-3.572;2023-02-28T13:27:24;101761.03;;;-0.32;95.90
54554;BME280;40450;55.848;-3.572;2023-02-28T13:29:52;101759.71;;;0.57;95.39